Time;durP1;ratioP1;P1;durP2;ratioP2;P2;SDS_P1;SDS_P2;PMS_P1;PMS_P2;Temp;Humidity;BMP_temperature;BMP_pressure;BME280_temperature;BME280_humidity;BME280_pressure;Samples;Min_cycle;Max_cycle;Signal;HPM_P1;HPM_P2
2021/11/13 00:00:48;;;;;;;28.83;3.90;;;;;;;;;;5048669;28;20025;-74
2021/11/13 00:03:16;;;;;;;33.35;4.10;;;;;;;;;;5082647;28;20039;-75
2021/11/13 00:05:48;;;;;;;19.55;3.40;;;;;;;;;;5082675;28;20020;-74
2021/11/13 00:08:13;;;;;;;16.33;3.38;;;;;;;;;;5082227;28;20040;-76
2021/11/13 00:10:40;;;;;;;23.42;2.75;;;;;;;;;;5082270;28;20016;-74
2021/11/13 00:13:08;;;;;;;13.60;2.85;;;;;;;;;;5065463;28;20035;-77
2021/11/13 00:15:36;;;;;;;12.50;2.95;;;;;;;;;;5082511;28;20461;-75
2021/11/13 00:18:02;;;;;;;13.90;2.83;;;;;;;;;;5081427;28;20020;-74
2021/11/13 00:20:28;;;;;;;8.70;2.25;;;;;;;;;;5082082;28;20039;-75
2021/11/13 00:22:55;;;;;;;18.73;2.50;;;;;;;;;;5082022;28;20025;-75
2021/11/13 00:25:22;;;;;;;7.50;2.35;;;;;;;;;;5082178;28;20032;-76
2021/11/13 00:27:48;;;;;;;7.90;2.55;;;;;;;;;;5083218;28;20032;-75
2021/11/13 00:30:14;;;;;;;7.57;2.20;;;;;;;;;;5050205;28;20053;-76
2021/11/13 00:32:41;;;;;;;6.88;2.60;;;;;;;;;;5085554;28;20092;-75
2021/11/13 00:35:07;;;;;;;3.83;2.33;;;;;;;;;;5086431;28;20028;-74
2021/11/13 00:37:33;;;;;;;6.85;2.30;;;;;;;;;;5085476;28;20062;-77
2021/11/13 00:39:59;;;;;;;12.90;2.70;;;;;;;;;;5087167;28;20032;-75
2021/11/13 00:42:24;;;;;;;4.50;2.30;;;;;;;;;;5068685;28;20060;-74
2021/11/13 00:44:50;;;;;;;5.10;2.67;;;;;;;;;;5085541;28;20086;-74
2021/11/13 00:47:17;;;;;;;7.03;2.60;;;;;;;;;;5068053;28;20056;-74
2021/11/13 00:49:43;;;;;;;5.47;2.95;;;;;;;;;;5085244;28;20028;-74
2021/11/13 00:52:10;;;;;;;4.43;2.25;;;;;;;;;;5085256;28;20059;-76
2021/11/13 00:54:36;;;;;;;9.05;2.60;;;;;;;;;;5085616;28;20039;-75
2021/11/13 00:57:04;;;;;;;13.07;3.60;;;;;;;;;;5085317;28;20472;-75
2021/11/13 00:59:31;;;;;;;11.27;3.25;;;;;;;;;;5085698;28;20039;-76
2021/11/13 01:02:00;;;;;;;10.43;3.25;;;;;;;;;;5085276;28;20097;-74
2021/11/13 01:04:26;;;;;;;9.70;2.35;;;;;;;;;;5085045;28;20147;-75
2021/11/13 01:06:53;;;;;;;13.85;3.10;;;;;;;;;;5084776;28;20063;-74
2021/11/13 01:09:19;;;;;;;9.20;3.08;;;;;;;;;;5084855;28;20032;-73
2021/11/13 01:11:45;;;;;;;11.23;2.63;;;;;;;;;;5084780;28;20052;-74
2021/11/13 01:14:10;;;;;;;9.50;2.75;;;;;;;;;;5084090;28;20032;-73
2021/11/13 01:16:36;;;;;;;11.43;2.45;;;;;;;;;;5084477;28;20031;-72
2021/11/13 01:19:03;;;;;;;17.52;3.70;;;;;;;;;;5084674;28;20268;-72
2021/11/13 01:21:32;;;;;;;6.28;2.90;;;;;;;;;;5068179;28;20052;-73
2021/11/13 01:23:58;;;;;;;7.35;2.63;;;;;;;;;;5051289;28;20040;-73
2021/11/13 01:26:24;;;;;;;10.70;3.80;;;;;;;;;;5084323;28;20063;-73
2021/11/13 01:28:50;;;;;;;7.10;3.20;;;;;;;;;;5084801;28;20024;-73
2021/11/13 01:31:16;;;;;;;9.50;4.05;;;;;;;;;;5085995;28;20024;-73
2021/11/13 01:33:45;;;;;;;9.88;3.85;;;;;;;;;;5068229;28;20028;-75
2021/11/13 01:36:13;;;;;;;9.90;3.72;;;;;;;;;;5084732;28;20024;-75
2021/11/13 01:38:39;;;;;;;10.25;4.90;;;;;;;;;;5084761;28;20056;-75
2021/11/13 01:41:07;;;;;;;13.07;4.68;;;;;;;;;;5086286;28;20043;-75
2021/11/13 01:43:38;;;;;;;7.97;3.60;;;;;;;;;;5085145;28;20067;-75
2021/11/13 01:46:07;;;;;;;11.45;3.97;;;;;;;;;;5085008;28;20107;-76
2021/11/13 01:48:33;;;;;;;9.25;3.72;;;;;;;;;;5084715;28;20072;-74
2021/11/13 01:51:00;;;;;;;9.25;3.60;;;;;;;;;;5084328;28;20031;-77
2021/11/13 01:53:29;;;;;;;8.50;3.45;;;;;;;;;;5067931;28;20138;-74
2021/11/13 01:55:56;;;;;;;9.82;3.78;;;;;;;;;;5084599;28;20024;-76
2021/11/13 01:58:23;;;;;;;14.32;4.18;;;;;;;;;;5068297;28;20064;-74
2021/11/13 02:00:54;;;;;;;12.68;3.67;;;;;;;;;;5084145;28;20048;-75
2021/11/13 02:03:22;;;;;;;8.77;3.38;;;;;;;;;;5068160;28;20036;-77
2021/11/13 02:05:49;;;;;;;12.38;4.00;;;;;;;;;;5084166;28;20035;-75
2021/11/13 02:08:16;;;;;;;12.07;3.95;;;;;;;;;;5067486;28;20057;-75
2021/11/13 02:10:42;;;;;;;7.82;3.67;;;;;;;;;;5084085;28;20094;-75
2021/11/13 02:13:07;;;;;;;13.02;3.55;;;;;;;;;;5083641;28;20040;-74
2021/11/13 02:15:33;;;;;;;9.02;3.35;;;;;;;;;;5083465;28;20055;-74
2021/11/13 02:18:00;;;;;;;6.93;2.58;;;;;;;;;;5083742;28;20037;-74
2021/11/13 02:20:36;;;;;;;6.07;2.65;;;;;;;;;;5084031;28;20035;-75
2021/11/13 02:23:10;;;;;;;6.82;2.60;;;;;;;;;;5083746;28;20032;-75
2021/11/13 02:25:36;;;;;;;6.90;2.85;;;;;;;;;;5067827;28;20048;-75
2021/11/13 02:28:03;;;;;;;8.00;2.45;;;;;;;;;;5066935;28;20122;-74
2021/11/13 02:30:29;;;;;;;5.88;2.60;;;;;;;;;;5067046;28;20033;-74
2021/11/13 02:32:55;;;;;;;7.10;3.10;;;;;;;;;;5083349;28;20024;-74
2021/11/13 02:35:23;;;;;;;6.22;2.60;;;;;;;;;;5066918;28;20056;-75
2021/11/13 02:37:50;;;;;;;5.45;2.40;;;;;;;;;;5066732;28;20028;-75
2021/11/13 02:40:17;;;;;;;8.35;2.60;;;;;;;;;;5050112;28;20037;-75
2021/11/13 02:42:47;;;;;;;8.23;2.53;;;;;;;;;;5066544;28;20028;-75
2021/11/13 02:45:14;;;;;;;7.47;2.30;;;;;;;;;;5066531;28;20025;-74
2021/11/13 02:47:44;;;;;;;6.68;2.53;;;;;;;;;;5083335;28;20110;-75
2021/11/13 02:50:13;;;;;;;6.45;2.58;;;;;;;;;;5049968;28;20033;-74
2021/11/13 02:52:53;;;;;;;7.90;2.42;;;;;;;;;;5082645;28;20045;-75
2021/11/13 02:55:19;;;;;;;8.85;2.88;;;;;;;;;;5082600;28;20108;-75
2021/11/13 02:57:45;;;;;;;5.20;2.33;;;;;;;;;;5084310;28;20043;-74
2021/11/13 03:00:13;;;;;;;11.10;2.30;;;;;;;;;;5066365;28;20037;-74
2021/11/13 03:02:40;;;;;;;5.80;2.00;;;;;;;;;;5082985;28;20025;-74
2021/11/13 03:05:18;;;;;;;6.22;2.55;;;;;;;;;;5083166;28;20023;-74
2021/11/13 03:07:45;;;;;;;8.00;2.40;;;;;;;;;;5082911;28;20025;-75
2021/11/13 03:10:15;;;;;;;8.93;2.83;;;;;;;;;;5083272;28;20029;-75
2021/11/13 03:12:42;;;;;;;9.80;2.92;;;;;;;;;;5083043;28;20029;-74
2021/11/13 03:15:09;;;;;;;8.45;2.67;;;;;;;;;;5066321;28;20052;-75
2021/11/13 03:17:36;;;;;;;9.23;2.35;;;;;;;;;;5082874;28;20043;-74
2021/11/13 03:20:08;;;;;;;7.72;2.63;;;;;;;;;;5083230;28;20040;-74
2021/11/13 03:22:36;;;;;;;7.90;2.00;;;;;;;;;;5082701;28;20031;-75
2021/11/13 03:25:37;;;;;;;5.72;1.70;;;;;;;;;;5066197;28;20067;-74
2021/11/13 03:28:07;;;;;;;7.28;1.70;;;;;;;;;;5082079;28;20033;-75
2021/11/13 03:30:36;;;;;;;8.40;2.22;;;;;;;;;;5066043;28;20059;-75
2021/11/13 03:33:03;;;;;;;7.82;2.10;;;;;;;;;;5082248;28;20031;-74
2021/11/13 03:35:33;;;;;;;5.75;2.15;;;;;;;;;;5082395;28;20055;-74
2021/11/13 03:38:12;;;;;;;8.93;2.15;;;;;;;;;;5082071;28;20024;-74
2021/11/13 03:40:41;;;;;;;6.95;1.98;;;;;;;;;;5065441;28;20083;-77
2021/11/13 03:43:08;;;;;;;7.72;1.80;;;;;;;;;;5065545;28;20471;-76
2021/11/13 03:45:35;;;;;;;5.95;1.73;;;;;;;;;;5082704;28;20036;-75
2021/11/13 03:48:00;;;;;;;5.88;2.10;;;;;;;;;;5065682;28;20028;-74
2021/11/13 03:50:30;;;;;;;12.18;2.05;;;;;;;;;;5082855;28;20033;-75
2021/11/13 03:52:56;;;;;;;9.15;2.00;;;;;;;;;;5083315;28;20044;-74
2021/11/13 03:55:24;;;;;;;10.77;2.13;;;;;;;;;;5082574;28;20032;-75
2021/11/13 03:57:50;;;;;;;13.30;2.50;;;;;;;;;;5065265;28;20102;-73
2021/11/13 04:00:17;;;;;;;11.80;1.98;;;;;;;;;;5082569;28;20123;-74
2021/11/13 04:02:46;;;;;;;13.77;2.58;;;;;;;;;;5082704;28;20024;-75
2021/11/13 04:05:12;;;;;;;11.20;2.20;;;;;;;;;;5083705;28;20092;-75
2021/11/13 04:07:38;;;;;;;5.45;2.15;;;;;;;;;;5082497;28;20446;-74
2021/11/13 04:10:06;;;;;;;14.40;2.05;;;;;;;;;;5083132;28;20043;-74
2021/11/13 04:12:33;;;;;;;12.00;2.30;;;;;;;;;;5066108;28;20032;-75
2021/11/13 04:14:59;;;;;;;16.77;3.08;;;;;;;;;;5065737;28;20032;-75
2021/11/13 04:17:27;;;;;;;12.13;3.05;;;;;;;;;;5065584;28;20029;-74
2021/11/13 04:19:52;;;;;;;10.27;2.55;;;;;;;;;;5065889;28;20024;-74
2021/11/13 04:22:20;;;;;;;14.50;2.75;;;;;;;;;;5082454;28;20040;-74
2021/11/13 04:24:46;;;;;;;10.80;2.88;;;;;;;;;;5065757;28;20576;-74
2021/11/13 04:27:16;;;;;;;8.60;3.20;;;;;;;;;;5082016;28;20097;-74
2021/11/13 04:29:46;;;;;;;17.23;3.05;;;;;;;;;;5084585;28;20029;-74
2021/11/13 04:32:16;;;;;;;10.15;3.25;;;;;;;;;;5066049;28;20037;-74
2021/11/13 04:35:13;;;;;;;13.30;3.25;;;;;;;;;;5066024;28;20036;-74
2021/11/13 04:37:31;;;;;;;10.32;3.13;;;;;;;;;;5083410;28;20029;-74
2021/11/13 04:39:57;;;;;;;15.98;3.55;;;;;;;;;;5065660;28;20045;-75
2021/11/13 04:42:23;;;;;;;12.88;3.15;;;;;;;;;;5083691;28;20084;-73
2021/11/13 04:44:50;;;;;;;10.70;3.33;;;;;;;;;;5083892;28;20025;-75
2021/11/13 04:47:17;;;;;;;15.13;3.20;;;;;;;;;;5082722;28;20040;-76
2021/11/13 04:49:43;;;;;;;13.00;3.05;;;;;;;;;;5082273;28;20036;-74
2021/11/13 04:52:10;;;;;;;6.82;3.33;;;;;;;;;;5082103;28;20048;-73
2021/11/13 04:54:36;;;;;;;10.57;3.20;;;;;;;;;;5065465;28;20046;-73
2021/11/13 04:57:02;;;;;;;12.95;3.25;;;;;;;;;;5081919;28;20024;-73
2021/11/13 04:59:28;;;;;;;11.50;3.92;;;;;;;;;;5082399;28;20032;-73
2021/11/13 05:01:54;;;;;;;11.10;3.50;;;;;;;;;;5048968;28;20035;-74
2021/11/13 05:04:19;;;;;;;11.40;3.50;;;;;;;;;;5082661;28;20029;-74
2021/11/13 05:06:46;;;;;;;18.45;4.03;;;;;;;;;;5082813;28;20487;-73
2021/11/13 05:09:12;;;;;;;19.10;4.15;;;;;;;;;;5066059;28;20033;-73
2021/11/13 05:11:39;;;;;;;10.88;3.63;;;;;;;;;;5081885;28;20056;-74
2021/11/13 05:14:04;;;;;;;16.17;3.22;;;;;;;;;;5082184;28;20176;-73
2021/11/13 05:16:36;;;;;;;13.75;3.60;;;;;;;;;;5082731;28;20024;-73
2021/11/13 05:19:02;;;;;;;15.43;3.95;;;;;;;;;;5086178;28;20044;-75
2021/11/13 05:21:28;;;;;;;20.88;4.05;;;;;;;;;;5085747;28;20032;-74
2021/11/13 05:23:54;;;;;;;7.50;3.13;;;;;;;;;;5087097;28;20024;-75
2021/11/13 05:26:19;;;;;;;13.05;3.22;;;;;;;;;;5086439;28;20050;-73
2021/11/13 05:28:45;;;;;;;17.90;3.55;;;;;;;;;;5085860;28;20056;-73
2021/11/13 05:31:12;;;;;;;12.98;2.97;;;;;;;;;;5087139;28;20028;-74
2021/11/13 05:33:39;;;;;;;12.45;2.55;;;;;;;;;;5085891;28;20055;-73
2021/11/13 05:36:05;;;;;;;14.43;3.08;;;;;;;;;;5068602;28;20036;-74
2021/11/13 05:38:30;;;;;;;12.00;3.25;;;;;;;;;;5085455;28;20068;-74
2021/11/13 05:40:56;;;;;;;9.98;2.60;;;;;;;;;;5085304;28;20128;-74
2021/11/13 05:43:22;;;;;;;15.32;2.80;;;;;;;;;;5085232;28;20078;-74
2021/11/13 05:45:57;;;;;;;13.68;2.70;;;;;;;;;;5086333;28;20158;-73
2021/11/13 05:48:23;;;;;;;14.85;2.80;;;;;;;;;;5052127;28;20033;-74
2021/11/13 05:50:53;;;;;;;12.60;2.92;;;;;;;;;;5068037;28;20047;-73
2021/11/13 05:53:30;;;;;;;16.48;2.85;;;;;;;;;;5084575;28;20040;-76
2021/11/13 05:55:55;;;;;;;10.45;2.95;;;;;;;;;;5084709;28;20025;-74
2021/11/13 05:58:21;;;;;;;13.73;3.05;;;;;;;;;;5086180;28;20032;-74
2021/11/13 06:00:47;;;;;;;12.27;3.33;;;;;;;;;;5084676;28;20101;-74
2021/11/13 06:03:19;;;;;;;14.30;2.83;;;;;;;;;;5068214;28;20044;-73
2021/11/13 06:05:45;;;;;;;10.40;2.47;;;;;;;;;;5084998;28;20123;-74
2021/11/13 06:08:12;;;;;;;9.57;2.22;;;;;;;;;;5068069;28;20036;-73
2021/11/13 06:10:38;;;;;;;11.90;3.03;;;;;;;;;;5084626;28;20075;-74
2021/11/13 06:13:06;;;;;;;12.88;2.60;;;;;;;;;;5084364;28;20028;-74
2021/11/13 06:15:32;;;;;;;9.93;2.50;;;;;;;;;;5067497;28;20024;-73
2021/11/13 06:17:58;;;;;;;11.38;2.70;;;;;;;;;;5084326;28;20036;-74
2021/11/13 06:20:25;;;;;;;11.38;2.97;;;;;;;;;;5086274;28;20032;-74
2021/11/13 06:22:51;;;;;;;13.40;2.60;;;;;;;;;;5067450;28;20047;-73
2021/11/13 06:25:20;;;;;;;13.20;3.00;;;;;;;;;;5084253;28;20055;-74
2021/11/13 06:27:46;;;;;;;19.10;3.05;;;;;;;;;;5083437;28;20090;-74
2021/11/13 06:30:14;;;;;;;13.50;3.13;;;;;;;;;;5083968;28;20385;-75
2021/11/13 06:32:41;;;;;;;15.50;3.33;;;;;;;;;;5084130;28;20198;-75
2021/11/13 06:35:10;;;;;;;7.63;3.38;;;;;;;;;;5068020;28;20037;-73
2021/11/13 06:37:37;;;;;;;14.43;3.13;;;;;;;;;;5084515;28;20480;-74
2021/11/13 06:40:05;;;;;;;13.15;2.78;;;;;;;;;;5084621;28;20028;-73
2021/11/13 06:42:33;;;;;;;14.02;3.13;;;;;;;;;;5084434;28;20032;-73
2021/11/13 06:44:58;;;;;;;20.10;3.58;;;;;;;;;;5067819;28;20036;-74
2021/11/13 06:47:24;;;;;;;14.10;3.10;;;;;;;;;;5085742;28;20055;-72
2021/11/13 06:49:50;;;;;;;13.52;3.13;;;;;;;;;;5067326;28;20033;-73
2021/11/13 06:52:17;;;;;;;15.25;3.70;;;;;;;;;;5083791;28;20050;-75
2021/11/13 06:54:42;;;;;;;16.13;3.30;;;;;;;;;;5084159;28;20050;-74
2021/11/13 06:57:09;;;;;;;11.73;2.55;;;;;;;;;;5067494;28;20064;-73
2021/11/13 06:59:51;;;;;;;16.13;2.70;;;;;;;;;;5083836;28;20028;-75
2021/11/13 07:02:17;;;;;;;21.13;3.58;;;;;;;;;;5062419;28;20063;-74
2021/11/13 07:04:43;;;;;;;20.63;3.45;;;;;;;;;;5065663;28;20029;-74
2021/11/13 07:07:10;;;;;;;12.85;2.47;;;;;;;;;;5082823;28;20048;-73
2021/11/13 07:09:37;;;;;;;11.02;2.70;;;;;;;;;;5084123;28;20386;-74
2021/11/13 07:12:04;;;;;;;8.48;2.33;;;;;;;;;;5083238;28;20447;-73
2021/11/13 07:14:31;;;;;;;15.80;2.95;;;;;;;;;;5083664;28;20035;-74
2021/11/13 07:16:57;;;;;;;11.10;2.28;;;;;;;;;;5083349;28;20028;-73
2021/11/13 07:19:26;;;;;;;23.42;3.33;;;;;;;;;;5083639;28;20033;-75
2021/11/13 07:21:52;;;;;;;11.35;3.17;;;;;;;;;;5084228;28;20497;-74
2021/11/13 07:24:18;;;;;;;14.40;3.28;;;;;;;;;;5066673;28;20050;-73
2021/11/13 07:26:51;;;;;;;8.82;2.72;;;;;;;;;;5083275;28;20032;-73
2021/11/13 07:29:24;;;;;;;12.18;2.60;;;;;;;;;;5067372;28;20060;-74
2021/11/13 07:31:50;;;;;;;11.85;2.38;;;;;;;;;;5082785;28;20043;-74
2021/11/13 07:34:17;;;;;;;9.00;2.67;;;;;;;;;;5049758;28;20033;-75
2021/11/13 07:36:43;;;;;;;15.85;3.10;;;;;;;;;;5049695;28;20117;-73
2021/11/13 07:39:10;;;;;;;13.35;2.88;;;;;;;;;;5065838;28;20040;-74
2021/11/13 07:41:36;;;;;;;10.70;2.70;;;;;;;;;;5082704;28;20533;-73
2021/11/13 07:44:02;;;;;;;11.45;2.28;;;;;;;;;;5083100;28;20037;-74
2021/11/13 07:46:28;;;;;;;8.55;2.30;;;;;;;;;;5082759;28;20028;-74
2021/11/13 07:48:55;;;;;;;13.63;1.95;;;;;;;;;;5066186;28;20506;-75
2021/11/13 07:51:21;;;;;;;15.77;2.92;;;;;;;;;;5083292;28;20119;-75
2021/11/13 07:53:48;;;;;;;9.70;2.08;;;;;;;;;;5082522;28;20114;-74
2021/11/13 07:56:18;;;;;;;12.95;2.53;;;;;;;;;;5082966;28;20064;-74
2021/11/13 07:58:43;;;;;;;8.13;2.58;;;;;;;;;;5083415;28;20050;-75
2021/11/13 08:01:09;;;;;;;12.50;2.15;;;;;;;;;;5084631;28;20037;-74
2021/11/13 08:03:36;;;;;;;14.75;2.47;;;;;;;;;;5065898;28;20048;-74
2021/11/13 08:06:02;;;;;;;8.93;2.28;;;;;;;;;;5082746;28;20037;-73
2021/11/13 08:08:27;;;;;;;12.93;2.28;;;;;;;;;;5083997;28;20530;-73
2021/11/13 08:10:53;;;;;;;12.07;3.33;;;;;;;;;;5082789;28;20028;-74
2021/11/13 08:13:20;;;;;;;15.13;2.35;;;;;;;;;;5065906;28;20073;-76
2021/11/13 08:15:48;;;;;;;13.40;2.20;;;;;;;;;;5049468;28;20039;-73
2021/11/13 08:18:19;;;;;;;16.30;2.30;;;;;;;;;;5082699;28;20037;-74
2021/11/13 08:20:46;;;;;;;10.82;2.47;;;;;;;;;;5066015;28;20044;-73
2021/11/13 08:23:19;;;;;;;13.85;2.53;;;;;;;;;;5082897;28;20055;-74
2021/11/13 08:25:46;;;;;;;13.57;2.33;;;;;;;;;;5066153;28;20054;-74
2021/11/13 08:28:13;;;;;;;11.27;1.90;;;;;;;;;;5082733;28;20035;-76
2021/11/13 08:30:40;;;;;;;11.85;2.60;;;;;;;;;;5049425;28;20591;-75
2021/11/13 08:33:07;;;;;;;13.60;2.42;;;;;;;;;;5082513;28;20033;-75
2021/11/13 08:35:36;;;;;;;12.80;2.33;;;;;;;;;;5082572;28;20034;-75
2021/11/13 08:38:03;;;;;;;13.55;2.45;;;;;;;;;;5081891;28;20529;-76
2021/11/13 08:40:28;;;;;;;10.88;2.60;;;;;;;;;;5084466;28;20029;-75
2021/11/13 08:42:55;;;;;;;10.82;2.70;;;;;;;;;;5083634;28;20469;-74
2021/11/13 08:45:20;;;;;;;12.68;3.40;;;;;;;;;;5083766;28;20036;-75
2021/11/13 08:47:52;;;;;;;11.82;2.42;;;;;;;;;;5083603;28;20024;-74
2021/11/13 08:50:23;;;;;;;13.30;2.20;;;;;;;;;;5049319;28;20041;-73
2021/11/13 08:52:52;;;;;;;19.58;2.50;;;;;;;;;;5084778;28;20044;-74
2021/11/13 08:55:21;;;;;;;9.18;2.15;;;;;;;;;;5087746;28;20092;-74
2021/11/13 08:57:48;;;;;;;10.88;1.70;;;;;;;;;;5086333;28;20124;-75
2021/11/13 09:00:24;;;;;;;7.20;1.77;;;;;;;;;;5086099;28;20033;-73
2021/11/13 09:02:50;;;;;;;10.85;2.00;;;;;;;;;;5085985;28;20062;-74
2021/11/13 09:05:17;;;;;;;13.02;1.95;;;;;;;;;;5086131;28;20028;-74
2021/11/13 09:07:42;;;;;;;15.07;2.75;;;;;;;;;;5086037;28;20473;-76
2021/11/13 09:10:09;;;;;;;11.85;2.40;;;;;;;;;;5085948;28;20039;-74
2021/11/13 09:12:36;;;;;;;14.90;2.70;;;;;;;;;;5085443;28;20535;-74
2021/11/13 09:15:11;;;;;;;9.65;1.75;;;;;;;;;;5085685;28;20036;-75
2021/11/13 09:17:38;;;;;;;9.30;1.90;;;;;;;;;;5084822;28;20036;-74
2021/11/13 09:20:05;;;;;;;11.32;1.70;;;;;;;;;;5084757;28;20028;-74
2021/11/13 09:22:30;;;;;;;15.13;1.98;;;;;;;;;;5084808;28;20119;-73
2021/11/13 09:24:56;;;;;;;11.50;1.90;;;;;;;;;;5084867;28;20425;-75
2021/11/13 09:27:22;;;;;;;10.10;1.70;;;;;;;;;;5084987;28;20352;-74
2021/11/13 09:29:48;;;;;;;8.07;1.23;;;;;;;;;;5086246;28;20032;-76
2021/11/13 09:32:14;;;;;;;13.32;2.22;;;;;;;;;;5084715;28;20025;-75
2021/11/13 09:34:42;;;;;;;12.02;1.52;;;;;;;;;;5084534;28;20170;-76
2021/11/13 09:37:07;;;;;;;4.57;1.48;;;;;;;;;;5084507;28;20226;-75
2021/11/13 09:39:34;;;;;;;14.05;1.95;;;;;;;;;;5084324;28;20028;-74
2021/11/13 09:42:01;;;;;;;10.80;1.60;;;;;;;;;;5084101;28;20519;-75
2021/11/13 09:44:28;;;;;;;5.78;1.48;;;;;;;;;;5084449;28;20021;-76
2021/11/13 09:46:59;;;;;;;15.27;1.77;;;;;;;;;;5083946;28;20063;-75
2021/11/13 09:49:29;;;;;;;7.00;1.52;;;;;;;;;;5083805;28;20048;-76
2021/11/13 09:51:55;;;;;;;6.07;1.10;;;;;;;;;;5083565;28;20465;-74
2021/11/13 09:54:21;;;;;;;7.80;1.55;;;;;;;;;;5084588;28;20054;-75
2021/11/13 09:56:48;;;;;;;9.93;1.15;;;;;;;;;;5084158;28;20024;-77
2021/11/13 09:59:14;;;;;;;5.75;1.23;;;;;;;;;;5085547;28;20028;-76
2021/11/13 10:01:39;;;;;;;6.40;1.38;;;;;;;;;;5067109;28;20037;-76
2021/11/13 10:04:05;;;;;;;5.63;1.10;;;;;;;;;;5067460;28;20067;-75
2021/11/13 10:06:31;;;;;;;7.35;1.50;;;;;;;;;;5084204;28;20432;-75
2021/11/13 10:08:56;;;;;;;8.50;1.13;;;;;;;;;;5084195;28;20038;-75
2021/11/13 10:11:25;;;;;;;8.57;1.17;;;;;;;;;;5067077;28;20060;-76
2021/11/13 10:13:55;;;;;;;11.85;1.38;;;;;;;;;;5067051;28;20031;-77
2021/11/13 10:16:33;;;;;;;11.35;2.42;;;;;;;;;;5084200;28;20036;-74
2021/11/13 10:19:14;;;;;;;9.95;2.78;;;;;;;;;;5084347;28;20391;-75
2021/11/13 10:21:43;;;;;;;8.30;2.40;;;;;;;;;;5083715;28;20028;-76
2021/11/13 10:24:19;;;;;;;7.45;2.55;;;;;;;;;;5083757;28;20024;-75
2021/11/13 10:26:48;;;;;;;9.20;2.45;;;;;;;;;;5066953;28;20036;-76
2021/11/13 10:29:27;;;;;;;10.93;2.97;;;;;;;;;;5083671;28;20423;-76
2021/11/13 10:32:05;;;;;;;9.82;2.92;;;;;;;;;;5084272;28;20139;-77
2021/11/13 10:34:51;;;;;;;9.73;2.65;;;;;;;;;;5083571;28;20032;-77
2021/11/13 10:37:25;;;;;;;10.45;2.42;;;;;;;;;;5083287;28;20044;-76
2021/11/13 10:39:58;;;;;;;6.28;2.30;;;;;;;;;;5083971;28;20035;-76
2021/11/13 10:42:24;;;;;;;13.10;3.20;;;;;;;;;;5083095;28;20059;-76
2021/11/13 10:44:51;;;;;;;11.70;2.25;;;;;;;;;;5066619;28;20408;-76
2021/11/13 10:47:22;;;;;;;6.63;2.55;;;;;;;;;;5084862;28;20090;-76
2021/11/13 10:49:51;;;;;;;13.73;2.53;;;;;;;;;;5084682;28;20036;-76
2021/11/13 10:52:20;;;;;;;8.32;1.90;;;;;;;;;;5083106;28;20048;-76
2021/11/13 10:54:49;;;;;;;7.72;2.10;;;;;;;;;;5066262;28;20055;-78
2021/11/13 10:57:29;;;;;;;8.57;1.75;;;;;;;;;;5084674;28;20029;-76
2021/11/13 11:00:15;;;;;;;7.18;2.15;;;;;;;;;;5080084;28;20037;-75
2021/11/13 11:03:03;;;;;;;6.93;2.40;;;;;;;;;;5084490;28;20112;-76
2021/11/13 11:05:44;;;;;;;10.10;2.42;;;;;;;;;;5066436;28;20033;-77
2021/11/13 11:08:25;;;;;;;12.60;2.42;;;;;;;;;;5084253;28;20055;-78
2021/11/13 11:10:53;;;;;;;9.30;2.50;;;;;;;;;;5082670;28;20032;-75
2021/11/13 11:13:49;;;;;;;8.88;2.95;;;;;;;;;;5049504;28;20036;-77
2021/11/13 11:16:36;;;;;;;9.48;2.47;;;;;;;;;;5076881;28;20108;-76
2021/11/13 11:19:07;;;;;;;10.05;2.55;;;;;;;;;;5082875;28;20095;-77
2021/11/13 11:21:42;;;;;;;9.48;2.65;;;;;;;;;;5083054;28;20041;-76
2021/11/13 11:24:14;;;;;;;8.85;3.17;;;;;;;;;;5082903;28;20028;-76
2021/11/13 11:26:41;;;;;;;11.52;3.45;;;;;;;;;;5082330;28;20035;-76
2021/11/13 11:29:07;;;;;;;10.73;2.55;;;;;;;;;;5082509;28;20032;-77
2021/11/13 11:31:41;;;;;;;11.18;3.55;;;;;;;;;;5082265;28;20056;-77
2021/11/13 11:34:32;;;;;;;7.78;2.40;;;;;;;;;;5082559;28;20029;-76
2021/11/13 11:37:05;;;;;;;12.48;3.30;;;;;;;;;;5082468;28;20086;-76
2021/11/13 11:39:31;;;;;;;13.25;2.80;;;;;;;;;;5081949;28;20028;-78
2021/11/13 11:41:57;;;;;;;12.43;2.50;;;;;;;;;;5082173;28;20473;-75
2021/11/13 11:44:23;;;;;;;10.05;2.50;;;;;;;;;;5083489;28;20033;-77
2021/11/13 11:46:50;;;;;;;9.52;2.75;;;;;;;;;;5082307;28;20026;-79
2021/11/13 11:49:17;;;;;;;10.10;2.55;;;;;;;;;;5082046;28;20032;-76
2021/11/13 11:51:45;;;;;;;11.43;2.47;;;;;;;;;;5082150;28;20036;-77
2021/11/13 11:54:11;;;;;;;14.55;2.67;;;;;;;;;;5082334;28;20458;-77
2021/11/13 11:56:38;;;;;;;9.68;2.42;;;;;;;;;;5083685;28;20067;-76
2021/11/13 11:59:06;;;;;;;9.63;2.47;;;;;;;;;;5082487;28;20036;-76
2021/11/13 12:01:38;;;;;;;13.27;2.67;;;;;;;;;;5083009;28;20033;-79
2021/11/13 12:04:15;;;;;;;7.95;2.70;;;;;;;;;;5083651;28;20036;-77
2021/11/13 12:06:44;;;;;;;9.93;2.70;;;;;;;;;;5083303;28;20050;-77
2021/11/13 12:09:11;;;;;;;7.32;2.60;;;;;;;;;;5083783;28;20477;-77
2021/11/13 12:11:42;;;;;;;9.90;2.63;;;;;;;;;;5082125;28;20029;-76
2021/11/13 12:14:32;;;;;;;8.90;2.53;;;;;;;;;;5065483;28;20097;-76
2021/11/13 12:17:24;;;;;;;9.77;2.85;;;;;;;;;;5081898;28;20052;-76
2021/11/13 12:20:05;;;;;;;9.23;2.83;;;;;;;;;;5082223;28;20020;-77
2021/11/13 12:22:36;;;;;;;10.98;3.17;;;;;;;;;;5083254;28;20028;-76
2021/11/13 12:25:23;;;;;;;12.65;2.90;;;;;;;;;;5082212;28;20029;-78
2021/11/13 12:28:10;;;;;;;13.38;3.35;;;;;;;;;;5086155;28;20028;-76
2021/11/13 12:30:55;;;;;;;7.88;2.80;;;;;;;;;;5087373;28;20028;-76
2021/11/13 12:33:26;;;;;;;8.23;2.60;;;;;;;;;;5086014;28;20374;-76
2021/11/13 12:35:55;;;;;;;11.27;3.13;;;;;;;;;;5085404;28;20029;-76
2021/11/13 12:38:41;;;;;;;9.18;3.30;;;;;;;;;;5086418;28;20032;-76
2021/11/13 12:41:23;;;;;;;13.18;3.58;;;;;;;;;;5085647;28;20029;-76
2021/11/13 12:43:55;;;;;;;8.52;3.00;;;;;;;;;;5086080;28;20095;-76
2021/11/13 12:46:40;;;;;;;10.85;3.80;;;;;;;;;;5085722;28;20052;-76
2021/11/13 12:49:17;;;;;;;15.23;4.32;;;;;;;;;;5085581;28;20362;-76
2021/11/13 12:51:55;;;;;;;12.80;3.65;;;;;;;;;;5085599;28;20041;-76
2021/11/13 12:54:52;;;;;;;10.93;3.10;;;;;;;;;;5085820;28;20040;-76
2021/11/13 12:57:31;;;;;;;15.07;3.55;;;;;;;;;;5085651;28;20099;-76
2021/11/13 13:00:12;;;;;;;14.43;4.43;;;;;;;;;;5085513;28;20041;-76
2021/11/13 13:02:38;;;;;;;13.00;3.38;;;;;;;;;;5085225;28;20057;-76
2021/11/13 13:05:06;;;;;;;14.43;3.42;;;;;;;;;;5085513;28;20115;-77
2021/11/13 13:54:39;;;;;;;8.07;2.40;;;;;;;;;;5065624;28;20118;-77
2021/11/13 13:57:48;;;;;;;11.02;2.92;;;;;;;;;;5046018;28;20045;-77
2021/11/13 14:00:15;;;;;;;9.02;2.58;;;;;;;;;;5045649;28;20024;-77
2021/11/13 14:06:00;;;;;;;11.48;3.17;;;;;;;;;;5092453;28;20059;-76
2021/11/13 14:08:26;;;;;;;7.65;2.72;;;;;;;;;;5087423;28;20066;-76
2021/11/13 14:10:53;;;;;;;9.65;3.42;;;;;;;;;;5086760;28;20031;-76
2021/11/13 15:20:40;;;;;;;8.98;3.35;;;;;;;;;;5003552;28;20068;-76
2021/11/13 15:23:07;;;;;;;12.70;3.20;;;;;;;;;;5082340;28;20021;-75
2021/11/13 15:25:44;;;;;;;14.88;3.63;;;;;;;;;;5049090;28;20033;-76
2021/11/13 15:28:30;;;;;;;10.73;3.38;;;;;;;;;;5082471;28;20031;-77
2021/11/13 15:31:07;;;;;;;9.73;3.50;;;;;;;;;;5082478;28;20201;-76
2021/11/13 15:33:36;;;;;;;12.63;3.65;;;;;;;;;;5080930;28;20028;-78
2021/11/13 15:36:07;;;;;;;15.02;4.15;;;;;;;;;;5080796;28;20106;-75
2021/11/13 15:38:35;;;;;;;8.70;4.00;;;;;;;;;;5081037;28;20036;-76
2021/11/13 15:41:14;;;;;;;10.43;3.95;;;;;;;;;;5080725;28;20055;-75
2021/11/13 15:43:40;;;;;;;8.70;3.25;;;;;;;;;;5081279;28;20040;-75
2021/11/13 15:46:10;;;;;;;10.45;4.28;;;;;;;;;;5065077;28;20020;-76
2021/11/13 15:48:41;;;;;;;10.85;3.70;;;;;;;;;;5083046;28;20108;-76
2021/11/13 15:51:11;;;;;;;10.80;3.55;;;;;;;;;;5083202;28;20113;-76
2021/11/13 15:53:53;;;;;;;13.50;3.60;;;;;;;;;;5083506;28;20012;-76
2021/11/13 15:56:27;;;;;;;9.00;3.35;;;;;;;;;;5100510;28;20040;-75
2021/11/13 15:58:54;;;;;;;13.63;3.97;;;;;;;;;;5103069;28;20096;-76
2021/11/13 16:01:22;;;;;;;11.15;3.55;;;;;;;;;;5101542;28;20060;-75
2021/11/13 16:03:48;;;;;;;11.57;3.60;;;;;;;;;;5101524;28;20042;-76
2021/11/13 16:06:13;;;;;;;14.82;3.70;;;;;;;;;;5103438;28;20028;-75
2021/11/13 16:08:39;;;;;;;12.38;4.30;;;;;;;;;;5103162;28;20575;-75
2021/11/13 16:11:07;;;;;;;13.40;4.20;;;;;;;;;;5103129;28;20035;-76
2021/11/13 16:13:34;;;;;;;11.95;3.55;;;;;;;;;;5103219;28;20032;-75
2021/11/13 16:16:01;;;;;;;12.68;3.65;;;;;;;;;;5102526;28;20031;-77
2021/11/13 16:18:26;;;;;;;9.10;3.88;;;;;;;;;;5103567;28;20016;-76
2021/11/13 16:20:54;;;;;;;15.80;4.53;;;;;;;;;;5103422;28;20510;-75
2021/11/13 16:23:20;;;;;;;16.10;3.53;;;;;;;;;;5103345;28;20038;-75
2021/11/13 16:25:49;;;;;;;10.60;3.63;;;;;;;;;;5103457;28;20083;-75
2021/11/13 16:28:19;;;;;;;12.38;3.70;;;;;;;;;;5103174;28;20028;-76
2021/11/13 16:30:46;;;;;;;14.13;3.47;;;;;;;;;;5103206;28;20024;-76
2021/11/13 16:33:11;;;;;;;11.48;3.90;;;;;;;;;;5101701;28;20035;-77
2021/11/13 16:35:38;;;;;;;11.57;3.83;;;;;;;;;;5103170;28;20024;-74
2021/11/13 16:38:09;;;;;;;9.30;3.95;;;;;;;;;;5103257;28;20113;-77
2021/11/13 16:40:38;;;;;;;10.52;3.20;;;;;;;;;;5101762;28;20027;-75
2021/11/13 16:43:04;;;;;;;11.13;3.35;;;;;;;;;;5102027;28;20063;-75
2021/11/13 16:45:37;;;;;;;11.10;3.30;;;;;;;;;;5101787;28;20106;-76